Time;durP1;ratioP1;P1;durP2;ratioP2;P2;SDS_P1;SDS_P2;PMS_P1;PMS_P2;Temp;Humidity;BMP_temperature;BMP_pressure;BME280_temperature;BME280_humidity;BME280_pressure;Samples;Min_cycle;Max_cycle;Signal;HPM_P1;HPM_P2
2019/08/23 00:01:12;;;;;;;8.4;7.6;;;;;;;;;;;;;
2019/08/23 00:03:37;;;;;;;7.8;7;;;;;;;;;;;;;
2019/08/23 00:06:03;;;;;;;8;7.2;;;;;;;;;;;;;
2019/08/23 00:08:28;;;;;;;8;7.3;;;;;;;;;;;;;
2019/08/23 00:10:53;;;;;;;8.8;7.8;;;;;;;;;;;;;
2019/08/23 00:13:18;;;;;;;8.8;7.8;;;;;;;;;;;;;
2019/08/23 00:15:43;;;;;;;7.9;7.2;;;;;;;;;;;;;
2019/08/23 00:18:09;;;;;;;8.3;7.6;;;;;;;;;;;;;
2019/08/23 00:20:33;;;;;;;8;7.1;;;;;;;;;;;;;
2019/08/23 00:22:58;;;;;;;8.2;7.2;;;;;;;;;;;;;
2019/08/23 00:25:24;;;;;;;8;7.3;;;;;;;;;;;;;
2019/08/23 00:27:49;;;;;;;10.2;8;;;;;;;;;;;;;
2019/08/23 00:30:14;;;;;;;7.8;7.1;;;;;;;;;;;;;
2019/08/23 00:32:39;;;;;;;8.3;7.2;;;;;;;;;;;;;
2019/08/23 00:35:04;;;;;;;8.2;7.4;;;;;;;;;;;;;
2019/08/23 00:37:29;;;;;;;8;6.9;;;;;;;;;;;;;
2019/08/23 00:39:54;;;;;;;8.2;7.4;;;;;;;;;;;;;
2019/08/23 00:42:20;;;;;;;7.8;7;;;;;;;;;;;;;
2019/08/23 00:44:45;;;;;;;8.3;7.4;;;;;;;;;;;;;
2019/08/23 00:47:10;;;;;;;8.6;7.8;;;;;;;;;;;;;
2019/08/23 00:49:35;;;;;;;7.8;7.1;;;;;;;;;;;;;
2019/08/23 00:52:00;;;;;;;8.1;7.4;;;;;;;;;;;;;
2019/08/23 00:54:26;;;;;;;9;7.5;;;;;;;;;;;;;
2019/08/23 00:56:50;;;;;;;8;7.3;;;;;;;;;;;;;
2019/08/23 00:59:15;;;;;;;8.5;7.6;;;;;;;;;;;;;
2019/08/23 01:01:40;;;;;;;9.2;8.3;;;;;;;;;;;;;
2019/08/23 01:04:18;;;;;;;9.7;8.8;;;;;;;;;;;;;
2019/08/23 01:06:33;;;;;;;10.2;9.2;;;;;;;;;;;;;
2019/08/23 01:08:57;;;;;;;11.1;10.1;;;;;;;;;;;;;
2019/08/23 01:11:25;;;;;;;11.5;10.4;;;;;;;;;;;;;
2019/08/23 01:13:51;;;;;;;12.2;11;;;;;;;;;;;;;
2019/08/23 01:16:16;;;;;;;12.5;11.4;;;;;;;;;;;;;
2019/08/23 01:18:41;;;;;;;12.7;11.6;;;;;;;;;;;;;
2019/08/23 01:21:06;;;;;;;14;12.8;;;;;;;;;;;;;
2019/08/23 01:23:31;;;;;;;13.9;12.7;;;;;;;;;;;;;
2019/08/23 01:25:56;;;;;;;13;11.9;;;;;;;;;;;;;
2019/08/23 01:28:22;;;;;;;14;12.7;;;;;;;;;;;;;
2019/08/23 01:30:47;;;;;;;13.5;12.4;;;;;;;;;;;;;
2019/08/23 01:33:12;;;;;;;13.4;12.3;;;;;;;;;;;;;
2019/08/23 01:35:37;;;;;;;14.3;13.1;;;;;;;;;;;;;
2019/08/23 01:38:02;;;;;;;14.2;13;;;;;;;;;;;;;
2019/08/23 01:40:27;;;;;;;13.6;12.4;;;;;;;;;;;;;
2019/08/23 01:42:52;;;;;;;13;11.8;;;;;;;;;;;;;
2019/08/23 01:45:17;;;;;;;12.7;11.6;;;;;;;;;;;;;
2019/08/23 01:47:42;;;;;;;13.3;12.2;;;;;;;;;;;;;
2019/08/23 01:50:12;;;;;;;12.5;11.5;;;;;;;;;;;;;
2019/08/23 01:52:37;;;;;;;12.5;11.5;;;;;;;;;;;;;
2019/08/23 01:55:02;;;;;;;13.1;12;;;;;;;;;;;;;
2019/08/23 01:57:27;;;;;;;13.1;11.9;;;;;;;;;;;;;
2019/08/23 01:59:52;;;;;;;15.9;14.5;;;;;;;;;;;;;
2019/08/23 02:02:17;;;;;;;14.5;13.3;;;;;;;;;;;;;
2019/08/23 02:04:43;;;;;;;14.3;13.1;;;;;;;;;;;;;
2019/08/23 02:07:08;;;;;;;15.1;13.7;;;;;;;;;;;;;
2019/08/23 02:09:34;;;;;;;14.6;13.3;;;;;;;;;;;;;
2019/08/23 02:12:00;;;;;;;14.1;12.9;;;;;;;;;;;;;
2019/08/23 02:14:25;;;;;;;14.3;13.1;;;;;;;;;;;;;
2019/08/23 02:16:51;;;;;;;15.1;13.7;;;;;;;;;;;;;
2019/08/23 02:19:16;;;;;;;15.5;14.2;;;;;;;;;;;;;
2019/08/23 02:21:41;;;;;;;14.3;13.1;;;;;;;;;;;;;
2019/08/23 02:24:06;;;;;;;14.6;13.3;;;;;;;;;;;;;
2019/08/23 02:26:32;;;;;;;14.3;13;;;;;;;;;;;;;
2019/08/23 02:28:57;;;;;;;14.4;13.1;;;;;;;;;;;;;
2019/08/23 02:31:22;;;;;;;13.2;12;;;;;;;;;;;;;
2019/08/23 02:33:47;;;;;;;12.5;11.2;;;;;;;;;;;;;
2019/08/23 02:36:12;;;;;;;12;10.9;;;;;;;;;;;;;
2019/08/23 02:38:38;;;;;;;12.1;11;;;;;;;;;;;;;
2019/08/23 02:41:03;;;;;;;11.3;10.3;;;;;;;;;;;;;
2019/08/23 02:43:28;;;;;;;11.2;10;;;;;;;;;;;;;
2019/08/23 02:45:53;;;;;;;10.6;9.7;;;;;;;;;;;;;
2019/08/23 02:48:19;;;;;;;10.6;9.7;;;;;;;;;;;;;
2019/08/23 02:50:45;;;;;;;10.2;9.3;;;;;;;;;;;;;
2019/08/23 02:53:12;;;;;;;11.6;10.6;;;;;;;;;;;;;
2019/08/23 02:55:37;;;;;;;14;12.8;;;;;;;;;;;;;
2019/08/23 02:58:02;;;;;;;14;12.8;;;;;;;;;;;;;
2019/08/23 03:00:27;;;;;;;15.1;13.8;;;;;;;;;;;;;
2019/08/23 03:02:52;;;;;;;15.6;14.4;;;;;;;;;;;;;
2019/08/23 03:05:17;;;;;;;16;14.7;;;;;;;;;;;;;
2019/08/23 03:07:42;;;;;;;16.2;14.8;;;;;;;;;;;;;
2019/08/23 03:10:08;;;;;;;15.6;14.3;;;;;;;;;;;;;
2019/08/23 03:12:33;;;;;;;14.3;13.2;;;;;;;;;;;;;
2019/08/23 03:14:58;;;;;;;16.5;15.1;;;;;;;;;;;;;
2019/08/23 03:17:24;;;;;;;15.1;13.7;;;;;;;;;;;;;
2019/08/23 03:19:49;;;;;;;14.1;13;;;;;;;;;;;;;
2019/08/23 03:22:15;;;;;;;14.7;13.2;;;;;;;;;;;;;
2019/08/23 03:24:41;;;;;;;13.8;12.7;;;;;;;;;;;;;
2019/08/23 03:27:06;;;;;;;13.9;12.7;;;;;;;;;;;;;
2019/08/23 03:29:31;;;;;;;14.1;12.9;;;;;;;;;;;;;
2019/08/23 03:31:56;;;;;;;13.9;12.8;;;;;;;;;;;;;
2019/08/23 03:34:21;;;;;;;12.7;11.7;;;;;;;;;;;;;
2019/08/23 03:36:46;;;;;;;14.3;13.1;;;;;;;;;;;;;
2019/08/23 03:39:11;;;;;;;14.3;13.1;;;;;;;;;;;;;
2019/08/23 03:43:39;;;;;;;12.3;11.3;;;;;;;15.65;93.58496;968.9592;;;;
2019/08/23 03:46:04;;;;;;;11.7;10.6;;;;;;;15.59;93.30371;968.9829;;;;
2019/08/23 03:48:29;;;;;;;10.6;9.6;;;;;;;15.58;93.00098;968.9817;;;;
2019/08/23 03:50:54;;;;;;;9.5;8.6;;;;;;;15.57;92.82324;969.0466;;;;
2019/08/23 03:53:19;;;;;;;9.5;8.7;;;;;;;15.53;92.48926;969.0239;;;;
2019/08/23 03:55:44;;;;;;;9.2;8.3;;;;;;;15.47;93.06934;969.0378;;;;
2019/08/23 03:58:09;;;;;;;8.6;7.8;;;;;;;15.48;93.03711;969.0403;;;;
2019/08/23 04:02:28;;;;;;;8.9;8.1;;;;;;;15.38;92.87598;969.084;;;;
2019/08/23 04:04:53;;;;;;;10.2;8.2;;;;;;;15.35;92.73047;969.0952;;;;
2019/08/23 04:07:18;;;;;;;8.7;7.9;;;;;;;15.32;93.22559;969.1242;;;;
2019/08/23 04:09:44;;;;;;;8.3;7.5;;;;;;;15.26;93.39648;969.1273;;;;
2019/08/23 04:12:09;;;;;;;8.4;7.6;;;;;;;15.28;92.59961;969.1545;;;;
2019/08/23 04:14:34;;;;;;;8.7;7.9;;;;;;;15.26;92.61914;969.171;;;;
2019/08/23 04:16:59;;;;;;;9;8.1;;;;;;;15.23;92.625;969.1704;;;;
2019/08/23 04:19:24;;;;;;;8.3;7.5;;;;;;;15.23;92.85547;969.1481;;;;
2019/08/23 04:21:49;;;;;;;8;7.2;;;;;;;15.3;92.37012;969.1607;;;;
2019/08/23 04:24:14;;;;;;;8.4;7.5;;;;;;;15.29;92.43848;969.2115;;;;
2019/08/23 04:26:39;;;;;;;8.3;7.6;;;;;;;15.23;93.19434;969.2394;;;;
2019/08/23 04:29:04;;;;;;;8.8;7.6;;;;;;;15.24;92.60156;969.2386;;;;
2019/08/23 04:31:29;;;;;;;8.2;7.4;;;;;;;15.24;92.91504;969.2542;;;;
2019/08/23 04:33:54;;;;;;;9.2;7.9;;;;;;;15.2;92.76855;969.2528;;;;
2019/08/23 04:36:20;;;;;;;8.3;7.6;;;;;;;15.24;92.46387;969.2567;;;;
2019/08/23 04:38:45;;;;;;;8.9;7.4;;;;;;;15.17;92.37891;969.3139;;;;
2019/08/23 04:41:10;;;;;;;8.6;7.8;;;;;;;15.08;93.33496;969.2952;;;;
2019/08/23 04:43:35;;;;;;;8.2;7.4;;;;;;;15.14;92.62891;969.2731;;;;
2019/08/23 04:46:00;;;;;;;8.4;6.6;;;;;;;15.26;91.51172;969.2842;;;;
2019/08/23 04:48:25;;;;;;;8;7.3;;;;;;;15.28;91.75;969.2506;;;;
2019/08/23 04:50:50;;;;;;;8.2;7.5;;;;;;;15.15;92.55957;969.2158;;;;
2019/08/23 04:53:16;;;;;;;8.1;7.3;;;;;;;15.2;91.96582;969.243;;;;
2019/08/23 04:55:41;;;;;;;7.6;6.9;;;;;;;15.3;91.64844;969.2428;;;;
2019/08/23 04:58:07;;;;;;;8.1;7.3;;;;;;;15.29;91.62402;969.2288;;;;
2019/08/23 05:00:32;;;;;;;8.6;6.6;;;;;;;15.31;91.96484;969.2938;;;;
2019/08/23 05:02:57;;;;;;;7.1;6.4;;;;;;;15.31;91.44141;969.2807;;;;
2019/08/23 05:05:23;;;;;;;7.8;6.9;;;;;;;15.31;91.74414;969.3086;;;;
2019/08/23 05:07:48;;;;;;;8.1;7;;;;;;;15.27;92.21191;969.313;;;;
2019/08/23 05:10:21;;;;;;;7.3;6.2;;;;;;;15.33;91.28223;969.2927;;;;
2019/08/23 05:12:46;;;;;;;9;6.3;;;;;;;15.43;90.60449;969.3286;;;;
2019/08/23 05:15:13;;;;;;;10.4;6.7;;;;;;;15.44;91.03906;969.347;;;;
2019/08/23 05:17:38;;;;;;;9.2;6.7;;;;;;;15.35;91.2998;969.2808;;;;
2019/08/23 05:20:08;;;;;;;8;6.8;;;;;;;15.36;90.70605;969.2833;;;;
2019/08/23 05:22:33;;;;;;;8.8;7;;;;;;;15.34;91.20215;969.2746;;;;
2019/08/23 05:25:00;;;;;;;8.3;6.8;;;;;;;15.4;90.99609;969.3092;;;;
2019/08/23 05:27:25;;;;;;;8.4;7.6;;;;;;;15.25;92.34961;969.2452;;;;
2019/08/23 05:29:50;;;;;;;9.1;7.8;;;;;;;15.29;91.46289;969.3011;;;;
2019/08/23 05:32:15;;;;;;;8.3;6.8;;;;;;;15.39;91.14355;969.2928;;;;
2019/08/23 05:34:40;;;;;;;9;7.5;;;;;;;15.52;90.13379;969.3908;;;;
2019/08/23 05:37:05;;;;;;;10.3;7.7;;;;;;;15.44;91.39941;969.2781;;;;
2019/08/23 05:39:30;;;;;;;10.1;7.8;;;;;;;15.57;90.01758;969.3055;;;;
2019/08/23 05:41:55;;;;;;;8.6;7.7;;;;;;;15.64;89.54297;969.3689;;;;
2019/08/23 05:44:24;;;;;;;8.9;8.1;;;;;;;15.63;89.44824;969.3655;;;;
2019/08/23 05:46:49;;;;;;;8.9;8;;;;;;;15.7;89.84473;969.3816;;;;
2019/08/23 05:49:15;;;;;;;9.3;8.4;;;;;;;15.72;88.61621;969.3845;;;;
2019/08/23 05:51:40;;;;;;;9.6;8.6;;;;;;;15.66;89.32715;969.3348;;;;
2019/08/23 05:54:06;;;;;;;10.9;8.9;;;;;;;15.69;89.11133;969.3677;;;;
2019/08/23 05:56:35;;;;;;;9.5;8.7;;;;;;;15.74;87.85059;969.3848;;;;
2019/08/23 05:59:00;;;;;;;12.5;10.1;;;;;;;15.78;87.29883;969.41;;;;
2019/08/23 06:01:25;;;;;;;10.5;9.4;;;;;;;;;;;;;
2019/08/23 06:03:51;;;;;;;11.6;10.5;;;;;;;;;;;;;
2019/08/23 06:06:16;;;;;;;11;10;;;;;;;;;;;;;
2019/08/23 06:08:41;;;;;;;12.1;10.9;;;;;;;;;;;;;
2019/08/23 06:11:08;;;;;;;12.9;11.7;;;;;;;;;;;;;
2019/08/23 06:13:33;;;;;;;12.7;11.5;;;;;;;;;;;;;
2019/08/23 06:15:58;;;;;;;13;11.8;;;;;;;;;;;;;
2019/08/23 06:18:23;;;;;;;12.8;11.7;;;;;;;;;;;;;
2019/08/23 06:20:49;;;;;;;12;10.9;;;;;;;;;;;;;
2019/08/23 06:23:14;;;;;;;11.8;10.7;;;;;;;;;;;;;
2019/08/23 06:25:44;;;;;;;12.2;11;;;;;;;;;;;;;
2019/08/23 06:28:11;;;;;;;11.7;10.7;;;;;;;;;;;;;
2019/08/23 06:30:36;;;;;;;12.5;11.4;;;;;;;;;;;;;
2019/08/23 06:33:03;;;;;;;12.3;11.2;;;;;;;;;;;;;
2019/08/23 06:35:28;;;;;;;12.6;11.4;;;;;;;;;;;;;
2019/08/23 06:37:53;;;;;;;13.6;12.2;;;;;;;;;;;;;
2019/08/23 06:40:18;;;;;;;13.1;11.9;;;;;;;;;;;;;
2019/08/23 06:42:44;;;;;;;12.5;11.3;;;;;;;;;;;;;
2019/08/23 06:45:09;;;;;;;13.7;12.3;;;;;;;;;;;;;
2019/08/23 06:47:35;;;;;;;13.3;12.1;;;;;;;;;;;;;
2019/08/23 06:50:00;;;;;;;13.6;12.3;;;;;;;;;;;;;
2019/08/23 06:52:26;;;;;;;12.9;11.7;;;;;;;;;;;;;
2019/08/23 06:54:51;;;;;;;12.4;11.3;;;;;;;;;;;;;
2019/08/23 06:57:17;;;;;;;13.1;11.8;;;;;;;;;;;;;
2019/08/23 06:59:42;;;;;;;15.7;14.4;;;;;;;;;;;;;
2019/08/23 07:02:07;;;;;;;15.1;13.6;;;;;;;;;;;;;
2019/08/23 07:04:32;;;;;;;13.9;12.7;;;;;;;;;;;;;
2019/08/23 07:06:57;;;;;;;15.7;14.3;;;;;;;;;;;;;
2019/08/23 07:09:24;;;;;;;15.7;14.3;;;;;;;;;;;;;
2019/08/23 07:11:50;;;;;;;15.7;14.3;;;;;;;;;;;;;
2019/08/23 07:14:15;;;;;;;16.9;15.4;;;;;;;;;;;;;
2019/08/23 07:16:40;;;;;;;15.7;14.1;;;;;;;;;;;;;
2019/08/23 07:19:06;;;;;;;15.7;14.2;;;;;;;;;;;;;
2019/08/23 07:21:31;;;;;;;13.2;12.1;;;;;;;;;;;;;
2019/08/23 07:23:58;;;;;;;16;14.5;;;;;;;;;;;;;
2019/08/23 07:26:23;;;;;;;13.7;12.5;;;;;;;;;;;;;
2019/08/23 07:28:48;;;;;;;14.8;13.6;;;;;;;;;;;;;
2019/08/23 07:31:13;;;;;;;14.2;12.8;;;;;;;;;;;;;
2019/08/23 07:33:38;;;;;;;14.2;13;;;;;;;;;;;;;
2019/08/23 07:36:03;;;;;;;14.7;13.4;;;;;;;;;;;;;
2019/08/23 07:38:29;;;;;;;14.9;13.5;;;;;;;;;;;;;
2019/08/23 07:40:54;;;;;;;15;13.6;;;;;;;;;;;;;
2019/08/23 07:43:19;;;;;;;14.1;12.6;;;;;;;;;;;;;
2019/08/23 07:45:45;;;;;;;13.6;12.4;;;;;;;;;;;;;
2019/08/23 07:48:10;;;;;;;15.3;13.9;;;;;;;;;;;;;
2019/08/23 07:50:35;;;;;;;14.1;12.8;;;;;;;;;;;;;
2019/08/23 07:53:01;;;;;;;14.3;12.9;;;;;;;;;;;;;
2019/08/23 07:55:26;;;;;;;13.4;12.2;;;;;;;;;;;;;
2019/08/23 07:57:51;;;;;;;12.9;11.6;;;;;;;;;;;;;
2019/08/23 08:00:16;;;;;;;14.6;13.1;;;;;;;;;;;;;
2019/08/23 08:02:41;;;;;;;15;13.5;;;;;;;;;;;;;
2019/08/23 08:05:06;;;;;;;14.7;13.3;;;;;;;;;;;;;
2019/08/23 08:07:32;;;;;;;13.3;12.1;;;;;;;;;;;;;
2019/08/23 08:09:57;;;;;;;14;12.8;;;;;;;;;;;;;
2019/08/23 08:12:23;;;;;;;13.9;12.6;;;;;;;;;;;;;
2019/08/23 08:14:48;;;;;;;14.5;13.1;;;;;;;;;;;;;
2019/08/23 08:17:13;;;;;;;15.2;13.9;;;;;;;;;;;;;
2019/08/23 08:19:38;;;;;;;14.9;13.6;;;;;;;;;;;;;
2019/08/23 08:22:03;;;;;;;14.1;12.8;;;;;;;;;;;;;
2019/08/23 08:24:30;;;;;;;13.2;12;;;;;;;;;;;;;
2019/08/23 08:26:55;;;;;;;14.9;13.5;;;;;;;;;;;;;
2019/08/23 08:29:20;;;;;;;14;12.7;;;;;;;;;;;;;
2019/08/23 08:31:45;;;;;;;12.5;11.3;;;;;;;;;;;;;
2019/08/23 08:34:11;;;;;;;13.3;12;;;;;;;;;;;;;
2019/08/23 08:36:36;;;;;;;12.9;11.6;;;;;;;;;;;;;
2019/08/23 08:39:01;;;;;;;12.6;11.4;;;;;;;;;;;;;
2019/08/23 08:41:26;;;;;;;11.7;10.6;;;;;;;;;;;;;
2019/08/23 08:43:51;;;;;;;12.1;11;;;;;;;;;;;;;
2019/08/23 08:46:18;;;;;;;11.6;10.6;;;;;;;;;;;;;
2019/08/23 08:48:43;;;;;;;9.6;8.7;;;;;;;;;;;;;
2019/08/23 08:51:10;;;;;;;10;9;;;;;;;;;;;;;
2019/08/23 08:53:35;;;;;;;9.1;8.2;;;;;;;;;;;;;
2019/08/23 08:56:01;;;;;;;8;7.2;;;;;;;;;;;;;
2019/08/23 08:58:27;;;;;;;8.1;7.3;;;;;;;;;;;;;
2019/08/23 09:00:51;;;;;;;9.4;7.6;;;;;;;;;;;;;
2019/08/23 09:03:17;;;;;;;7.1;6.4;;;;;;;;;;;;;
2019/08/23 09:05:42;;;;;;;10.4;6.7;;;;;;;;;;;;;
2019/08/23 09:08:08;;;;;;;8.7;7;;;;;;;;;;;;;
2019/08/23 09:10:33;;;;;;;6.9;6.2;;;;;;;;;;;;;
2019/08/23 09:13:00;;;;;;;8.4;7.6;;;;;;;;;;;;;
2019/08/23 09:15:25;;;;;;;8.4;7.5;;;;;;;;;;;;;
2019/08/23 09:17:50;;;;;;;7.8;7;;;;;;;;;;;;;
2019/08/23 09:20:16;;;;;;;7.5;6.7;;;;;;;;;;;;;
2019/08/23 09:22:41;;;;;;;8;6.7;;;;;;;;;;;;;
2019/08/23 09:25:07;;;;;;;7.7;6.9;;;;;;;;;;;;;
2019/08/23 09:27:33;;;;;;;6.7;6;;;;;;;;;;;;;
2019/08/23 09:29:58;;;;;;;6.9;6.2;;;;;;;;;;;;;
2019/08/23 09:32:23;;;;;;;7;6.1;;;;;;;;;;;;;
2019/08/23 09:34:48;;;;;;;6.8;6.1;;;;;;;;;;;;;
2019/08/23 09:37:13;;;;;;;7.3;6.4;;;;;;;;;;;;;
2019/08/23 09:39:38;;;;;;;7.7;6.4;;;;;;;;;;;;;
2019/08/23 09:42:03;;;;;;;5.9;5.3;;;;;;;;;;;;;
2019/08/23 09:44:29;;;;;;;6.7;5.4;;;;;;;;;;;;;
2019/08/23 09:46:54;;;;;;;5.7;5.1;;;;;;;;;;;;;
2019/08/23 09:49:19;;;;;;;6.3;5.1;;;;;;;;;;;;;
2019/08/23 09:51:46;;;;;;;7.5;5.9;;;;;;;;;;;;;
2019/08/23 09:54:11;;;;;;;7.6;5.1;;;;;;;;;;;;;
2019/08/23 09:56:36;;;;;;;7.3;5.7;;;;;;;;;;;;;
2019/08/23 09:59:01;;;;;;;6.6;5.4;;;;;;;;;;;;;
2019/08/23 10:01:26;;;;;;;6.2;5.5;;;;;;;;;;;;;
2019/08/23 10:03:51;;;;;;;7.9;5.1;;;;;;;;;;;;;
2019/08/23 10:06:16;;;;;;;6.3;5.3;;;;;;;;;;;;;
2019/08/23 10:08:42;;;;;;;6.4;4.8;;;;;;;;;;;;;
2019/08/23 10:11:07;;;;;;;5.5;4.8;;;;;;;;;;;;;
2019/08/23 10:13:32;;;;;;;6.3;4.7;;;;;;;;;;;;;
2019/08/23 10:15:57;;;;;;;6.1;5.5;;;;;;;;;;;;;
2019/08/23 10:18:22;;;;;;;8.4;5.7;;;;;;;;;;;;;
2019/08/23 10:20:48;;;;;;;7.1;5.4;;;;;;;;;;;;;
2019/08/23 10:23:13;;;;;;;5.4;4.5;;;;;;;;;;;;;
2019/08/23 10:25:38;;;;;;;4.8;3.9;;;;;;;;;;;;;
2019/08/23 10:28:05;;;;;;;7.3;5;;;;;;;;;;;;;
2019/08/23 10:30:30;;;;;;;7;5.2;;;;;;;;;;;;;
2019/08/23 10:32:55;;;;;;;5.3;4.2;;;;;;;;;;;;;
2019/08/23 10:35:20;;;;;;;5.6;4;;;;;;;;;;;;;
2019/08/23 10:37:45;;;;;;;4.8;3.7;;;;;;;;;;;;;
2019/08/23 10:40:12;;;;;;;5;4.2;;;;;;;;;;;;;
2019/08/23 10:42:37;;;;;;;7.8;4.4;;;;;;;;;;;;;
2019/08/23 10:45:03;;;;;;;5.6;4.6;;;;;;;;;;;;;
2019/08/23 10:47:28;;;;;;;6.1;4.6;;;;;;;;;;;;;
2019/08/23 10:49:53;;;;;;;5.7;4.9;;;;;;;;;;;;;
2019/08/23 10:52:19;;;;;;;5.9;5;;;;;;;;;;;;;
2019/08/23 10:54:45;;;;;;;6;4.9;;;;;;;;;;;;;
2019/08/23 10:57:10;;;;;;;5.5;4.5;;;;;;;;;;;;;
2019/08/23 10:59:36;;;;;;;8.4;4.5;;;;;;;;;;;;;
2019/08/23 11:02:01;;;;;;;6.6;4.3;;;;;;;;;;;;;
2019/08/23 11:04:26;;;;;;;7.3;4.7;;;;;;;;;;;;;
2019/08/23 11:06:51;;;;;;;6;4.8;;;;;;;;;;;;;
2019/08/23 11:09:17;;;;;;;6.7;4.9;;;;;;;;;;;;;
2019/08/23 11:11:54;;;;;;;5.8;4.3;;;;;;;;;;;;;
2019/08/23 11:14:31;;;;;;;4.7;4.2;;;;;;;;;;;;;
2019/08/23 11:16:45;;;;;;;6.1;4.8;;;;;;;;;;;;;
2019/08/23 11:19:11;;;;;;;7.6;3.9;;;;;;;;;;;;;
2019/08/23 11:21:36;;;;;;;5.3;4.8;;;;;;;;;;;;;
2019/08/23 11:24:01;;;;;;;5.6;4.2;;;;;;;;;;;;;
2019/08/23 11:26:26;;;;;;;5.9;4.3;;;;;;;;;;;;;
2019/08/23 11:28:51;;;;;;;6.3;4.8;;;;;;;;;;;;;
2019/08/23 11:31:16;;;;;;;6.9;4.7;;;;;;;;;;;;;
2019/08/23 11:33:41;;;;;;;5.4;4.3;;;;;;;;;;;;;
2019/08/23 11:36:06;;;;;;;6.8;4.9;;;;;;;;;;;;;
2019/08/23 11:38:31;;;;;;;6.2;4.3;;;;;;;;;;;;;
2019/08/23 11:40:56;;;;;;;7;4.7;;;;;;;;;;;;;
2019/08/23 11:43:22;;;;;;;5.1;4.6;;;;;;;;;;;;;
2019/08/23 11:45:47;;;;;;;5.6;4.6;;;;;;;;;;;;;
2019/08/23 11:48:12;;;;;;;6.3;4.1;;;;;;;;;;;;;
2019/08/23 11:50:37;;;;;;;6.7;4.7;;;;;;;;;;;;;
2019/08/23 11:53:02;;;;;;;6.4;5.2;;;;;;;;;;;;;
2019/08/23 11:55:30;;;;;;;7.4;5.1;;;;;;;;;;;;;
2019/08/23 11:57:55;;;;;;;6.8;4.8;;;;;;;;;;;;;
2019/08/23 12:00:20;;;;;;;5.6;5;;;;;;;;;;;;;
2019/08/23 12:02:45;;;;;;;5.5;4.6;;;;;;;;;;;;;
2019/08/23 12:05:10;;;;;;;6.6;4.8;;;;;;;;;;;;;
2019/08/23 12:07:35;;;;;;;7.4;5.2;;;;;;;;;;;;;
2019/08/23 12:10:00;;;;;;;7.2;4.7;;;;;;;;;;;;;
2019/08/23 12:12:26;;;;;;;7.1;4.9;;;;;;;;;;;;;
2019/08/23 12:14:51;;;;;;;7;5.4;;;;;;;;;;;;;
2019/08/23 12:17:17;;;;;;;7.6;6.2;;;;;;;;;;;;;
2019/08/23 12:19:42;;;;;;;7.5;5.6;;;;;;;;;;;;;
2019/08/23 12:22:09;;;;;;;6.6;5.7;;;;;;;;;;;;;
2019/08/23 12:24:34;;;;;;;8.7;6.7;;;;;;;;;;;;;
2019/08/23 12:26:59;;;;;;;8.8;6;;;;;;;;;;;;;
2019/08/23 12:29:24;;;;;;;8.2;6.2;;;;;;;;;;;;;
2019/08/23 12:31:50;;;;;;;6.7;6;;;;;;;;;;;;;
2019/08/23 12:34:15;;;;;;;6.6;5.9;;;;;;;;;;;;;
2019/08/23 12:36:40;;;;;;;7.6;6.8;;;;;;;;;;;;;
2019/08/23 12:39:05;;;;;;;9.9;6.5;;;;;;;;;;;;;
2019/08/23 12:41:31;;;;;;;8.8;6.5;;;;;;;;;;;;;
2019/08/23 12:43:56;;;;;;;7.7;6.6;;;;;;;;;;;;;
2019/08/23 12:46:22;;;;;;;6.3;5.6;;;;;;;;;;;;;
2019/08/23 12:48:48;;;;;;;7.9;6.1;;;;;;;;;;;;;
2019/08/23 12:51:13;;;;;;;8.9;6.3;;;;;;;;;;;;;
2019/08/23 12:53:39;;;;;;;6.4;5.8;;;;;;;;;;;;;
2019/08/23 12:56:04;;;;;;;8.4;6.4;;;;;;;;;;;;;
2019/08/23 12:58:33;;;;;;;7.5;6.6;;;;;;;;;;;;;
2019/08/23 13:00:58;;;;;;;6.7;6;;;;;;;;;;;;;
2019/08/23 13:03:23;;;;;;;7.7;6.2;;;;;;;;;;;;;
2019/08/23 13:05:48;;;;;;;6.6;5.4;;;;;;;;;;;;;
2019/08/23 13:08:15;;;;;;;7.4;5.9;;;;;;;;;;;;;
2019/08/23 13:10:41;;;;;;;8.2;6.2;;;;;;;;;;;;;
2019/08/23 13:13:06;;;;;;;7.2;6;;;;;;;;;;;;;
2019/08/23 13:15:31;;;;;;;8.5;6;;;;;;;;;;;;;
2019/08/23 13:17:58;;;;;;;8.4;6.9;;;;;;;;;;;;;
2019/08/23 13:20:23;;;;;;;8.1;7;;;;;;;;;;;;;
2019/08/23 13:22:48;;;;;;;8;6.8;;;;;;;;;;;;;
2019/08/23 15:05:46;;;;;;;10;7.9;;;;;;;23.46;61.57227;967.2068;;;;
2019/08/23 15:08:11;;;;;;;9.2;7.2;;;;;;;23.8;59.94629;967.1961;;;;
2019/08/23 15:10:36;;;;;;;7.9;6.6;;;;;;;24.05;59.79004;967.2377;;;;
2019/08/23 15:13:02;;;;;;;9.4;7;;;;;;;23.79;59.05664;967.1605;;;;
2019/08/23 15:15:27;;;;;;;7.8;6.9;;;;;;;23.71;59.88672;967.1523;;;;
2019/08/23 15:17:56;;;;;;;8.4;6.3;;;;;;;23.66;61.24316;967.1545;;;;
2019/08/23 15:20:22;;;;;;;8.4;6.9;;;;;;;23.4;61.90723;967.1841;;;;
2019/08/23 15:22:55;;;;;;;7.6;6.8;;;;;;;23.29;61.25195;967.1727;;;;
2019/08/23 15:25:12;;;;;;;7.5;6.8;;;;;;;23.18;62.42188;967.1565;;;;
2019/08/23 15:27:37;;;;;;;8.2;6.7;;;;;;;23.1;61.75781;967.1514;;;;
2019/08/23 15:30:02;;;;;;;7.4;6.7;;;;;;;22.91;62.77539;967.1242;;;;
2019/08/23 15:32:30;;;;;;;7.4;6.3;;;;;;;22.92;62.4209;967.1075;;;;
2019/08/23 15:35:14;;;;;;;6.8;6.1;;;;;;;22.92;61.2373;967.0792;;;;
2019/08/23 15:37:37;;;;;;;7.1;6;;;;;;;22.99;61.64844;967.0759;;;;
2019/08/23 15:40:02;;;;;;;9.7;6.1;;;;;;;23.01;61.30859;967.1197;;;;
2019/08/23 15:42:27;;;;;;;9;6;;;;;;;22.97;61.81152;967.1525;;;;
2019/08/23 15:44:54;;;;;;;6.6;6;;;;;;;22.97;61.9668;967.1286;;;;
2019/08/23 15:47:22;;;;;;;7.6;6;;;;;;;22.96;61.24316;967.1652;;;;
2019/08/23 15:49:47;;;;;;;7.9;6.3;;;;;;;22.94;61.72559;967.177;;;;
2019/08/23 15:52:15;;;;;;;9.3;6.3;;;;;;;22.84;61.78125;967.1339;;;;
2019/08/23 15:54:40;;;;;;;7.2;6.3;;;;;;;22.78;61.54883;967.158;;;;
2019/08/23 15:57:05;;;;;;;7.1;6.4;;;;;;;22.68;63.68848;967.1682;;;;
2019/08/23 15:59:30;;;;;;;7.6;6.3;;;;;;;22.59;64.25586;967.1671;;;;
2019/08/23 16:01:55;;;;;;;7.3;6.2;;;;;;;22.55;64.30762;967.146;;;;
2019/08/23 16:04:23;;;;;;;7.1;6.1;;;;;;;22.6;64.26855;967.1545;;;;
2019/08/23 16:06:48;;;;;;;7.1;6.4;;;;;;;22.64;64.87793;967.1777;;;;
2019/08/23 16:09:15;;;;;;;8;6.4;;;;;;;22.61;64.70703;967.1334;;;;
2019/08/23 16:11:40;;;;;;;7;6.3;;;;;;;22.62;63.46777;967.1616;;;;
2019/08/23 16:14:05;;;;;;;10.4;6.4;;;;;;;22.65;63.16406;967.1563;;;;
2019/08/23 16:16:30;;;;;;;6.7;6;;;;;;;22.54;63.30176;967.1387;;;;
2019/08/23 16:18:56;;;;;;;7.6;6.1;;;;;;;22.52;62.77832;967.0999;;;;
2019/08/23 16:24:05;;;;;;;6.5;5.9;;;;;;;22.63;63.14844;967.055;;;;
2019/08/23 16:26:30;;;;;;;6.6;5.9;;;;;;;22.6;63.08594;967.0753;;;;
2019/08/23 16:28:59;;;;;;;6.7;6;;;;;;;22.55;63.7168;967.0595;;;;
2019/08/23 16:31:24;;;;;;;6.7;6;;;;;;;22.58;63.75586;967.0906;;;;
2019/08/23 16:33:49;;;;;;;7.2;6;;;;;;;22.48;63.94336;967.0359;;;;
2019/08/23 16:36:19;;;;;;;6.1;5.5;;;;;;;22.43;62.6709;967.0457;;;;
2019/08/23 16:38:44;;;;;;;6.8;5.5;;;;;;;22.33;63.26172;967.0405;;;;
2019/08/23 16:41:09;;;;;;;9.8;5.9;;;;;;;22.18;63.45117;967.0595;;;;
2019/08/23 16:43:34;;;;;;;6.8;5.7;;;;;;;22.17;63.8291;967.0753;;;;
2019/08/23 16:45:59;;;;;;;8.2;5.3;;;;;;;22.11;64.68164;967.0809;;;;
2019/08/23 16:48:25;;;;;;;6.7;6;;;;;;;22.14;63.80078;967.0614;;;;
2019/08/23 16:50:54;;;;;;;6.8;5.8;;;;;;;22.06;64.98242;967.0009;;;;
2019/08/23 16:53:19;;;;;;;8.7;6.1;;;;;;;22.08;65.11523;967.035;;;;
2019/08/23 16:55:46;;;;;;;6.4;5.6;;;;;;;22.04;65.74805;967.0344;;;;
2019/08/23 16:58:11;;;;;;;6.6;5.9;;;;;;;22.03;65.56738;967.0438;;;;
2019/08/23 17:00:39;;;;;;;7.7;5.7;;;;;;;22.1;64.77539;966.9747;;;;
2019/08/23 17:03:04;;;;;;;7.1;5.6;;;;;;;22.05;65.91309;967.0119;;;;
2019/08/23 17:05:29;;;;;;;6.3;5.7;;;;;;;22.1;64.88281;967.0193;;;;
2019/08/23 17:07:58;;;;;;;6.5;5.8;;;;;;;22.06;65.0752;967.0476;;;;
2019/08/23 17:10:23;;;;;;;6.7;5.9;;;;;;;22.03;65.24902;966.9891;;;;
2019/08/23 17:12:48;;;;;;;6.2;5.6;;;;;;;22.04;65.47559;967.0037;;;;
2019/08/23 17:15:14;;;;;;;6.8;5.6;;;;;;;22.08;64.71289;967.0025;;;;
2019/08/23 17:17:41;;;;;;;7.2;5.9;;;;;;;21.95;65.79199;967.0489;;;;
2019/08/23 17:22:16;;;;;;;7.2;6.4;;;;;;;22.05;64.96973;967.0062;;;;
2019/08/23 17:23:10;;;;;;;6.5;5.8;;;;;;;21.92;65.87109;967.0045;;;;
2019/08/23 17:25:33;;;;;;;6.5;5.9;;;;;;;21.91;66.625;967.0181;;;;
2019/08/23 17:28:02;;;;;;;6.7;6;;;;;;;21.96;66.20703;966.9959;;;;
2019/08/23 17:30:28;;;;;;;6.9;6.1;;;;;;;21.93;66.13379;967.017;;;;
2019/08/23 17:34:20;;;;;;;8.1;6.1;;;;;;;21.91;66.22363;967.0347;;;;
2019/08/23 17:37:33;;;;;;;7;5.7;;;;;;;21.84;67.62988;967.0108;;;;
2019/08/23 17:39:59;;;;;;;8.1;6.2;;;;;;;21.84;66.87402;966.9965;;;;
2019/08/23 17:42:55;;;;;;;7.5;5.6;;;;;;;21.82;67.22559;967.0084;;;;
2019/08/23 17:45:01;;;;;;;6.1;5.5;;;;;;;21.8;68.14258;967.0037;;;;
2019/08/23 17:47:30;;;;;;;6.5;5.9;;;;;;;21.69;69.09473;966.991;;;;
2019/08/23 17:50:20;;;;;;;6.5;5.8;;;;;;;21.56;70.3125;967.0258;;;;
2019/08/23 17:52:51;;;;;;;7;6.3;;;;;;;21.5;70.43555;967.0297;;;;
2019/08/23 17:58:31;;;;;;;6.8;6.1;;;;;;;21.45;69.54199;967.087;;;;
2019/08/23 18:01:43;;;;;;;6.7;5.8;;;;;;;21.44;70.48438;967.1151;;;;
2019/08/23 18:03:39;;;;;;;7;6.3;;;;;;;21.32;70.86523;967.1435;;;;
2019/08/23 18:06:06;;;;;;;6.5;5.8;;;;;;;21.26;71.04395;967.111;;;;
2019/08/23 18:08:31;;;;;;;6.2;5.6;;;;;;;21.24;71.21875;967.1211;;;;
2019/08/23 18:10:56;;;;;;;7.6;6;;;;;;;21.21;71.78027;967.1598;;;;
2019/08/23 18:13:23;;;;;;;6;5.4;;;;;;;21.23;71.51172;967.1469;;;;
2019/08/23 18:15:49;;;;;;;6.8;5.9;;;;;;;21.23;70.71973;967.147;;;;
2019/08/23 18:18:14;;;;;;;7.7;6.7;;;;;;;21.26;71.12793;967.1699;;;;
2019/08/23 18:20:42;;;;;;;7.9;6.8;;;;;;;21.29;70.51953;967.1578;;;;
2019/08/23 18:23:07;;;;;;;7.6;6.9;;;;;;;21.36;70.16309;967.2174;;;;
2019/08/23 18:25:32;;;;;;;7.9;7.1;;;;;;;21.33;70.94922;967.1585;;;;
2019/08/23 18:27:57;;;;;;;7.5;6.8;;;;;;;21.34;70.45703;967.1956;;;;
2019/08/23 18:30:22;;;;;;;8.1;6.5;;;;;;;21.35;70.70508;967.1456;;;;
2019/08/23 18:32:54;;;;;;;7.5;6.6;;;;;;;21.32;70.42871;967.2131;;;;
2019/08/23 18:35:25;;;;;;;7.3;6.6;;;;;;;21.2;71.36621;967.1746;;;;
2019/08/23 18:37:52;;;;;;;8.7;7;;;;;;;21.16;73.11523;967.2631;;;;
2019/08/23 18:40:20;;;;;;;8.4;7.4;;;;;;;21.16;71.80664;967.2622;;;;
2019/08/23 18:42:45;;;;;;;9.2;8.3;;;;;;;20.96;73.40137;967.327;;;;
2019/08/23 18:45:11;;;;;;;8.2;7.4;;;;;;;20.99;73.34668;967.3557;;;;
2019/08/23 18:47:36;;;;;;;7.8;7;;;;;;;21.03;73.05762;967.3279;;;;
2019/08/23 18:50:01;;;;;;;7.7;6.8;;;;;;;21.04;72.41113;967.3397;;;;
2019/08/23 18:52:26;;;;;;;7.6;6.8;;;;;;;21.07;71.36914;967.355;;;;
2019/08/23 18:54:51;;;;;;;8.8;6.8;;;;;;;21.11;72.26953;967.3232;;;;
2019/08/23 18:57:17;;;;;;;7.2;6.5;;;;;;;21.06;72.0498;967.3293;;;;
2019/08/23 18:59:45;;;;;;;7.3;6.6;;;;;;;21.06;71.94434;967.3113;;;;
2019/08/23 19:02:11;;;;;;;7.3;6.5;;;;;;;21.08;72.32422;967.2861;;;;
2019/08/23 19:04:43;;;;;;;6.9;6.3;;;;;;;21.11;72.33008;967.2228;;;;
2019/08/23 19:07:09;;;;;;;8.3;6.7;;;;;;;21.12;73.80469;967.2834;;;;
2019/08/23 19:09:34;;;;;;;9.1;6.6;;;;;;;21.03;74.78027;967.31;;;;
2019/08/23 19:12:04;;;;;;;10.1;7;;;;;;;20.96;74.16699;967.3461;;;;
2019/08/23 19:14:30;;;;;;;7.9;7.1;;;;;;;20.98;73.68652;967.4066;;;;
2019/08/23 19:16:55;;;;;;;8.5;6.7;;;;;;;20.96;73.86035;967.3777;;;;
2019/08/23 19:19:19;;;;;;;9.4;7.2;;;;;;;20.97;74.32227;967.3575;;;;
2019/08/23 19:21:54;;;;;;;7.8;7;;;;;;;20.92;76.04492;967.3309;;;;
2019/08/23 19:24:18;;;;;;;7.9;7.1;;;;;;;20.86;75.81055;967.3148;;;;
2019/08/23 19:26:44;;;;;;;8.3;7.5;;;;;;;20.89;75.2627;967.2872;;;;